sensor_id;sensor_type;location;lat;lon;timestamp;pressure;altitude;pressure_sealevel;temperature;humidity
22257;BME280;11297;42.686;23.374;2022-07-26T00:02:24;94804.78;;;24.71;55.33
22257;BME280;11297;42.686;23.374;2022-07-26T00:04:50;94802.56;;;24.63;55.01
22257;BME280;11297;42.686;23.374;2022-07-26T00:07:15;94795.72;;;24.65;55.14
22257;BME280;11297;42.686;23.374;2022-07-26T00:09:41;94795.22;;;24.77;54.99
22257;BME280;11297;42.686;23.374;2022-07-26T00:12:08;94802.81;;;24.75;54.81
22257;BME280;11297;42.686;23.374;2022-07-26T00:14:34;94800.94;;;24.76;55.12
22257;BME280;11297;42.686;23.374;2022-07-26T00:17:00;94813.47;;;24.75;54.78
22257;BME280;11297;42.686;23.374;2022-07-26T00:19:26;94801.56;;;24.90;54.23
22257;BME280;11297;42.686;23.374;2022-07-26T00:21:51;94794.38;;;24.87;54.31
22257;BME280;11297;42.686;23.374;2022-07-26T00:24:36;94805.44;;;24.82;54.48
22257;BME280;11297;42.686;23.374;2022-07-26T00:27:04;94797.38;;;24.93;54.26
22257;BME280;11297;42.686;23.374;2022-07-26T00:29:29;94801.63;;;24.83;54.71
22257;BME280;11297;42.686;23.374;2022-07-26T00:31:55;94801.09;;;24.99;54.66
22257;BME280;11297;42.686;23.374;2022-07-26T00:34:20;94799.56;;;25.04;54.29
22257;BME280;11297;42.686;23.374;2022-07-26T00:36:45;94788.19;;;25.01;54.61
22257;BME280;11297;42.686;23.374;2022-07-26T00:39:11;94791.66;;;24.94;54.63
22257;BME280;11297;42.686;23.374;2022-07-26T00:41:36;94798.16;;;24.90;54.97
22257;BME280;11297;42.686;23.374;2022-07-26T00:44:02;94789.22;;;24.70;55.31
22257;BME280;11297;42.686;23.374;2022-07-26T00:46:28;94791.09;;;24.69;55.02
22257;BME280;11297;42.686;23.374;2022-07-26T00:48:53;94793.44;;;24.64;55.08
22257;BME280;11297;42.686;23.374;2022-07-26T00:51:19;94781.38;;;24.52;55.75
22257;BME280;11297;42.686;23.374;2022-07-26T00:53:45;94789.78;;;24.48;55.87
22257;BME280;11297;42.686;23.374;2022-07-26T00:56:12;94790.19;;;24.43;56.28
22257;BME280;11297;42.686;23.374;2022-07-26T00:58:39;94798.53;;;24.41;56.38
22257;BME280;11297;42.686;23.374;2022-07-26T01:01:04;94795.56;;;24.36;56.19
22257;BME280;11297;42.686;23.374;2022-07-26T01:03:30;94793.66;;;24.29;56.75
22257;BME280;11297;42.686;23.374;2022-07-26T01:05:55;94791.50;;;24.14;56.33
22257;BME280;11297;42.686;23.374;2022-07-26T01:08:21;94791.50;;;24.14;56.55
22257;BME280;11297;42.686;23.374;2022-07-26T01:10:46;94788.88;;;24.10;57.07
22257;BME280;11297;42.686;23.374;2022-07-26T01:13:18;94797.28;;;24.02;56.97
22257;BME280;11297;42.686;23.374;2022-07-26T01:15:44;94793.91;;;23.95;57.60
22257;BME280;11297;42.686;23.374;2022-07-26T01:18:09;94791.25;;;23.95;57.53
22257;BME280;11297;42.686;23.374;2022-07-26T01:20:35;94790.88;;;23.93;57.76
22257;BME280;11297;42.686;23.374;2022-07-26T01:23:00;94787.06;;;23.97;58.02
22257;BME280;11297;42.686;23.374;2022-07-26T01:25:30;94794.19;;;24.07;57.78
22257;BME280;11297;42.686;23.374;2022-07-26T01:27:56;94783.56;;;24.07;57.40
22257;BME280;11297;42.686;23.374;2022-07-26T01:30:22;94780.88;;;24.14;57.65
22257;BME280;11297;42.686;23.374;2022-07-26T01:32:47;94790.00;;;24.09;57.24
22257;BME280;11297;42.686;23.374;2022-07-26T01:35:12;94790.00;;;24.09;57.34
22257;BME280;11297;42.686;23.374;2022-07-26T01:37:38;94780.88;;;24.14;57.63
22257;BME280;11297;42.686;23.374;2022-07-26T01:40:04;94787.69;;;24.18;57.03
22257;BME280;11297;42.686;23.374;2022-07-26T01:42:30;94783.16;;;24.15;57.39
22257;BME280;11297;42.686;23.374;2022-07-26T01:44:55;94784.25;;;24.21;57.08
22257;BME280;11297;42.686;23.374;2022-07-26T01:47:20;94783.44;;;24.28;57.18
22257;BME280;11297;42.686;23.374;2022-07-26T01:49:46;94785.34;;;24.34;56.97
22257;BME280;11297;42.686;23.374;2022-07-26T01:52:11;94787.59;;;24.36;56.88
22257;BME280;11297;42.686;23.374;2022-07-26T01:54:37;94798.94;;;24.40;56.91
22257;BME280;11297;42.686;23.374;2022-07-26T01:57:02;94784.09;;;24.49;56.78
22257;BME280;11297;42.686;23.374;2022-07-26T01:59:28;94781.75;;;24.54;56.60
22257;BME280;11297;42.686;23.374;2022-07-26T02:01:54;94786.28;;;24.57;56.44
22257;BME280;11297;42.686;23.374;2022-07-26T02:04:19;94787.34;;;24.63;55.85
22257;BME280;11297;42.686;23.374;2022-07-26T02:07:03;94791.19;;;24.62;55.90
22257;BME280;11297;42.686;23.374;2022-07-26T02:09:28;94797.59;;;24.68;55.78
22257;BME280;11297;42.686;23.374;2022-07-26T02:11:54;94794.94;;;24.68;55.77
22257;BME280;11297;42.686;23.374;2022-07-26T02:14:19;94793.84;;;24.59;56.75
22257;BME280;11297;42.686;23.374;2022-07-26T02:16:44;94797.34;;;24.52;56.08
22257;BME280;11297;42.686;23.374;2022-07-26T02:19:10;94801.91;;;24.49;56.58
22257;BME280;11297;42.686;23.374;2022-07-26T02:21:35;94805.31;;;24.52;56.25
22257;BME280;11297;42.686;23.374;2022-07-26T02:24:01;94801.88;;;24.55;56.64
22257;BME280;11297;42.686;23.374;2022-07-26T02:26:26;94792.38;;;24.54;56.12
22257;BME280;11297;42.686;23.374;2022-07-26T02:28:51;94793.88;;;24.55;56.15
22257;BME280;11297;42.686;23.374;2022-07-26T02:31:17;94790.81;;;24.60;56.40
22257;BME280;11297;42.686;23.374;2022-07-26T02:33:42;94791.22;;;24.55;56.86
22257;BME280;11297;42.686;23.374;2022-07-26T02:36:07;94799.56;;;24.57;56.28
22257;BME280;11297;42.686;23.374;2022-07-26T02:38:33;94805.66;;;24.58;56.47
22257;BME280;11297;42.686;23.374;2022-07-26T02:40:58;94800.34;;;24.58;56.49
22257;BME280;11297;42.686;23.374;2022-07-26T02:43:24;94806.78;;;24.57;56.29
22257;BME280;11297;42.686;23.374;2022-07-26T02:45:51;94812.09;;;24.57;55.90
22257;BME280;11297;42.686;23.374;2022-07-26T02:48:16;94806.03;;;24.56;56.39
22257;BME280;11297;42.686;23.374;2022-07-26T02:50:41;94797.69;;;24.54;56.10
22257;BME280;11297;42.686;23.374;2022-07-26T02:53:07;94806.44;;;24.52;55.87
22257;BME280;11297;42.686;23.374;2022-07-26T02:55:32;94803.44;;;24.50;56.10
22257;BME280;11297;42.686;23.374;2022-07-26T02:57:58;94809.47;;;24.50;55.60
22257;BME280;11297;42.686;23.374;2022-07-26T03:00:25;94804.56;;;24.49;56.11
22257;BME280;11297;42.686;23.374;2022-07-26T03:02:50;94808.78;;;24.46;55.81
22257;BME280;11297;42.686;23.374;2022-07-26T03:05:16;94805.78;;;24.41;55.77
22257;BME280;11297;42.686;23.374;2022-07-26T03:07:42;94812.59;;;24.38;55.65
22257;BME280;11297;42.686;23.374;2022-07-26T03:10:08;94810.34;;;24.40;56.31
22257;BME280;11297;42.686;23.374;2022-07-26T03:12:34;94808.06;;;24.32;56.22
22257;BME280;11297;42.686;23.374;2022-07-26T03:14:59;94814.53;;;24.31;56.22
22257;BME280;11297;42.686;23.374;2022-07-26T03:17:25;94822.88;;;24.29;56.29
22257;BME280;11297;42.686;23.374;2022-07-26T03:19:51;94816.91;;;24.18;56.35
22257;BME280;11297;42.686;23.374;2022-07-26T03:22:16;94823.41;;;24.10;56.18
22257;BME280;11297;42.686;23.374;2022-07-26T03:24:42;94814.31;;;24.08;56.25
22257;BME280;11297;42.686;23.374;2022-07-26T03:27:07;94824.94;;;24.04;56.63
22257;BME280;11297;42.686;23.374;2022-07-26T03:29:33;94826.06;;;24.07;56.73
22257;BME280;11297;42.686;23.374;2022-07-26T03:31:58;94830.97;;;24.12;56.13
22257;BME280;11297;42.686;23.374;2022-07-26T03:34:23;94834.78;;;24.04;57.02
22257;BME280;11297;42.686;23.374;2022-07-26T03:36:49;94831.75;;;24.05;56.75
22257;BME280;11297;42.686;23.374;2022-07-26T03:39:14;94829.03;;;24.16;55.87
22257;BME280;11297;42.686;23.374;2022-07-26T03:41:40;94834.31;;;24.23;56.15
22257;BME280;11297;42.686;23.374;2022-07-26T03:44:05;94822.53;;;24.27;56.48
22257;BME280;11297;42.686;23.374;2022-07-26T03:46:31;94825.59;;;24.19;56.52
22257;BME280;11297;42.686;23.374;2022-07-26T03:48:56;94824.84;;;24.18;56.48
22257;BME280;11297;42.686;23.374;2022-07-26T03:51:22;94824.13;;;24.14;56.88
22257;BME280;11297;42.686;23.374;2022-07-26T03:53:48;94826.41;;;24.12;56.51
22257;BME280;11297;42.686;23.374;2022-07-26T03:56:14;94820.41;;;24.02;57.08
22257;BME280;11297;42.686;23.374;2022-07-26T03:59:00;94821.16;;;24.02;56.84
22257;BME280;11297;42.686;23.374;2022-07-26T04:01:27;94818.53;;;23.99;56.81
22257;BME280;11297;42.686;23.374;2022-07-26T04:03:53;94812.53;;;23.84;57.51
22257;BME280;11297;42.686;23.374;2022-07-26T04:06:18;94820.53;;;23.81;57.85
22257;BME280;11297;42.686;23.374;2022-07-26T04:08:44;94818.53;;;23.99;56.87
22257;BME280;11297;42.686;23.374;2022-07-26T04:11:09;94824.94;;;24.04;57.33
22257;BME280;11297;42.686;23.374;2022-07-26T04:13:35;94819.56;;;24.18;56.98
22257;BME280;11297;42.686;23.374;2022-07-26T04:16:01;94819.44;;;24.32;56.60
22257;BME280;11297;42.686;23.374;2022-07-26T04:18:27;94819.38;;;24.50;55.81
22257;BME280;11297;42.686;23.374;2022-07-26T04:20:52;94815.41;;;24.68;55.63
22257;BME280;11297;42.686;23.374;2022-07-26T04:23:18;94809.22;;;24.85;55.40
22257;BME280;11297;42.686;23.374;2022-07-26T04:25:43;94810.63;;;25.00;54.93
22257;BME280;11297;42.686;23.374;2022-07-26T04:28:10;94807.88;;;25.06;54.76
22257;BME280;11297;42.686;23.374;2022-07-26T04:30:36;94808.50;;;25.21;53.65
22257;BME280;11297;42.686;23.374;2022-07-26T04:33:02;94810.72;;;25.29;54.23
22257;BME280;11297;42.686;23.374;2022-07-26T04:35:27;94808.69;;;25.37;53.92
22257;BME280;11297;42.686;23.374;2022-07-26T04:37:53;94807.00;;;25.53;53.17
22257;BME280;11297;42.686;23.374;2022-07-26T04:40:20;94804.97;;;25.64;53.02
22257;BME280;11297;42.686;23.374;2022-07-26T04:42:46;94809.44;;;25.74;52.89
22257;BME280;11297;42.686;23.374;2022-07-26T04:45:12;94803.28;;;25.80;52.72
22257;BME280;11297;42.686;23.374;2022-07-26T04:47:43;94801.19;;;25.95;52.12
22257;BME280;11297;42.686;23.374;2022-07-26T04:50:12;94809.09;;;26.01;52.14
22257;BME280;11297;42.686;23.374;2022-07-26T04:52:38;94810.53;;;26.06;51.78
22257;BME280;11297;42.686;23.374;2022-07-26T04:55:07;94801.75;;;26.09;51.91
22257;BME280;11297;42.686;23.374;2022-07-26T04:57:33;94808.19;;;26.11;51.69
22257;BME280;11297;42.686;23.374;2022-07-26T04:59:59;94813.41;;;26.18;51.95
22257;BME280;11297;42.686;23.374;2022-07-26T05:02:25;94809.53;;;25.97;53.52
22257;BME280;11297;42.686;23.374;2022-07-26T05:04:50;94799.81;;;26.13;52.14
22257;BME280;11297;42.686;23.374;2022-07-26T05:07:16;94801.47;;;26.30;51.71
22257;BME280;11297;42.686;23.374;2022-07-26T05:09:41;94801.38;;;26.37;51.49
22257;BME280;11297;42.686;23.374;2022-07-26T05:12:07;94810.94;;;26.57;51.20
22257;BME280;11297;42.686;23.374;2022-07-26T05:14:33;94797.81;;;26.69;51.10
22257;BME280;11297;42.686;23.374;2022-07-26T05:16:58;94798.06;;;26.78;50.60
22257;BME280;11297;42.686;23.374;2022-07-26T05:19:24;94798.41;;;26.80;50.77
22257;BME280;11297;42.686;23.374;2022-07-26T05:21:49;94786.63;;;26.78;50.51
22257;BME280;11297;42.686;23.374;2022-07-26T05:24:16;94788.06;;;26.82;50.62
22257;BME280;11297;42.686;23.374;2022-07-26T05:26:41;94784.81;;;26.98;50.17
22257;BME280;11297;42.686;23.374;2022-07-26T05:29:06;94792.06;;;27.16;49.71
22257;BME280;11297;42.686;23.374;2022-07-26T05:31:32;94795.13;;;27.38;48.72
22257;BME280;11297;42.686;23.374;2022-07-26T05:33:57;94794.84;;;27.32;48.57
22257;BME280;11297;42.686;23.374;2022-07-26T05:36:23;94792.78;;;27.40;49.15
22257;BME280;11297;42.686;23.374;2022-07-26T05:38:48;94793.72;;;27.72;50.08
22257;BME280;11297;42.686;23.374;2022-07-26T05:41:13;94792.50;;;28.11;50.80
22257;BME280;11297;42.686;23.374;2022-07-26T05:43:39;94787.59;;;28.57;48.65
22257;BME280;11297;42.686;23.374;2022-07-26T05:46:04;94790.28;;;28.57;46.90
22257;BME280;11297;42.686;23.374;2022-07-26T05:48:30;94784.78;;;28.33;47.93
22257;BME280;11297;42.686;23.374;2022-07-26T05:50:55;94784.06;;;28.13;49.56
22257;BME280;11297;42.686;23.374;2022-07-26T05:53:21;94781.00;;;28.30;48.38
22257;BME280;11297;42.686;23.374;2022-07-26T05:55:46;94770.41;;;28.58;49.38
22257;BME280;11297;42.686;23.374;2022-07-26T05:58:12;94778.41;;;28.42;47.71
22257;BME280;11297;42.686;23.374;2022-07-26T06:00:37;94779.19;;;28.43;47.60
22257;BME280;11297;42.686;23.374;2022-07-26T06:03:02;94769.56;;;28.93;49.10
22257;BME280;11297;42.686;23.374;2022-07-26T06:05:55;94776.72;;;29.12;48.35
22257;BME280;11297;42.686;23.374;2022-07-26T06:08:22;94770.16;;;29.29;46.65
22257;BME280;11297;42.686;23.374;2022-07-26T06:10:48;94771.78;;;29.10;47.62
22257;BME280;11297;42.686;23.374;2022-07-26T06:13:14;94770.69;;;29.08;46.42
22257;BME280;11297;42.686;23.374;2022-07-26T06:15:39;94765.25;;;29.27;46.96
22257;BME280;11297;42.686;23.374;2022-07-26T06:18:06;94761.69;;;29.02;46.27
22257;BME280;11297;42.686;23.374;2022-07-26T06:20:32;94754.22;;;29.66;46.51
22257;BME280;11297;42.686;23.374;2022-07-26T06:22:58;94750.59;;;29.72;45.44
22257;BME280;11297;42.686;23.374;2022-07-26T06:25:25;94749.03;;;29.87;47.04
22257;BME280;11297;42.686;23.374;2022-07-26T06:27:51;94754.31;;;30.28;45.51
22257;BME280;11297;42.686;23.374;2022-07-26T06:30:17;94751.31;;;30.38;46.17
22257;BME280;11297;42.686;23.374;2022-07-26T06:32:42;94759.31;;;30.75;45.13
22257;BME280;11297;42.686;23.374;2022-07-26T06:35:13;94751.78;;;30.83;44.64
22257;BME280;11297;42.686;23.374;2022-07-26T06:37:39;94755.00;;;30.90;43.60
22257;BME280;11297;42.686;23.374;2022-07-26T06:40:07;94747.34;;;31.22;44.00
22257;BME280;11297;42.686;23.374;2022-07-26T06:42:33;94754.66;;;31.55;43.92
22257;BME280;11297;42.686;23.374;2022-07-26T06:44:59;94750.09;;;31.65;41.78
22257;BME280;11297;42.686;23.374;2022-07-26T06:47:24;94741.81;;;31.81;43.20
22257;BME280;11297;42.686;23.374;2022-07-26T06:49:50;94746.78;;;32.12;43.60
22257;BME280;11297;42.686;23.374;2022-07-26T06:52:16;94745.81;;;32.36;43.18
22257;BME280;11297;42.686;23.374;2022-07-26T06:54:42;94746.66;;;32.25;42.55
22257;BME280;11297;42.686;23.374;2022-07-26T06:57:07;94738.38;;;32.40;42.52
22257;BME280;11297;42.686;23.374;2022-07-26T06:59:33;94745.78;;;32.67;41.94
22257;BME280;11297;42.686;23.374;2022-07-26T07:01:59;94743.56;;;32.74;41.30
22257;BME280;11297;42.686;23.374;2022-07-26T07:04:30;94745.66;;;32.88;41.75
22257;BME280;11297;42.686;23.374;2022-07-26T07:06:56;94733.00;;;33.15;42.73
22257;BME280;11297;42.686;23.374;2022-07-26T07:09:27;94740.63;;;33.34;42.46
22257;BME280;11297;42.686;23.374;2022-07-26T07:11:52;94742.41;;;33.37;40.87
22257;BME280;11297;42.686;23.374;2022-07-26T07:14:18;94739.28;;;33.48;39.64
22257;BME280;11297;42.686;23.374;2022-07-26T07:16:43;94736.13;;;33.05;39.34
22257;BME280;11297;42.686;23.374;2022-07-26T07:19:08;94733.31;;;32.51;40.47
22257;BME280;11297;42.686;23.374;2022-07-26T07:21:34;94737.31;;;32.86;39.79
22257;BME280;11297;42.686;23.374;2022-07-26T07:23:59;94740.31;;;32.40;40.40
22257;BME280;11297;42.686;23.374;2022-07-26T07:26:25;94739.06;;;32.62;42.91
22257;BME280;11297;42.686;23.374;2022-07-26T07:28:50;94748.63;;;32.72;41.02
22257;BME280;11297;42.686;23.374;2022-07-26T07:31:16;94742.03;;;32.64;43.03
22257;BME280;11297;42.686;23.374;2022-07-26T07:33:41;94742.13;;;32.43;40.34
22257;BME280;11297;42.686;23.374;2022-07-26T07:36:07;94741.28;;;32.25;41.49
22257;BME280;11297;42.686;23.374;2022-07-26T07:38:32;94710.50;;;31.87;41.12
22257;BME280;11297;42.686;23.374;2022-07-26T07:40:58;94733.09;;;31.98;41.76
22257;BME280;11297;42.686;23.374;2022-07-26T07:43:23;94732.25;;;32.10;41.07
22257;BME280;11297;42.686;23.374;2022-07-26T07:45:48;94732.41;;;32.06;40.33
22257;BME280;11297;42.686;23.374;2022-07-26T07:48:14;94729.28;;;32.08;42.03
22257;BME280;11297;42.686;23.374;2022-07-26T07:50:39;94721.53;;;32.49;42.77
22257;BME280;11297;42.686;23.374;2022-07-26T07:53:05;94723.50;;;32.75;39.71
22257;BME280;11297;42.686;23.374;2022-07-26T07:55:30;94726.78;;;32.61;39.85
22257;BME280;11297;42.686;23.374;2022-07-26T07:57:56;94731.44;;;32.70;42.32
22257;BME280;11297;42.686;23.374;2022-07-26T08:00:21;94724.31;;;33.11;40.88
22257;BME280;11297;42.686;23.374;2022-07-26T08:02:47;94717.88;;;33.44;40.17
22257;BME280;11297;42.686;23.374;2022-07-26T08:05:13;94715.00;;;33.39;38.26
22257;BME280;11297;42.686;23.374;2022-07-26T08:07:38;94723.72;;;33.16;37.99
22257;BME280;11297;42.686;23.374;2022-07-26T08:10:05;94723.22;;;32.82;38.67
22257;BME280;11297;42.686;23.374;2022-07-26T08:12:30;94720.72;;;33.05;38.54
22257;BME280;11297;42.686;23.374;2022-07-26T08:14:56;94719.84;;;32.99;38.91
22257;BME280;11297;42.686;23.374;2022-07-26T08:17:21;94716.97;;;32.94;38.73
22257;BME280;11297;42.686;23.374;2022-07-26T08:19:47;94704.41;;;33.00;40.30
22257;BME280;11297;42.686;23.374;2022-07-26T08:22:12;94702.63;;;32.97;37.14
22257;BME280;11297;42.686;23.374;2022-07-26T08:24:38;94702.88;;;32.81;38.89
22257;BME280;11297;42.686;23.374;2022-07-26T08:27:03;94696.59;;;32.84;37.84
22257;BME280;11297;42.686;23.374;2022-07-26T08:29:29;94697.34;;;32.76;38.55
22257;BME280;11297;42.686;23.374;2022-07-26T08:31:54;94691.53;;;32.86;38.38
22257;BME280;11297;42.686;23.374;2022-07-26T08:34:19;94699.03;;;33.18;38.47
22257;BME280;11297;42.686;23.374;2022-07-26T08:36:46;94688.06;;;33.39;37.81
22257;BME280;11297;42.686;23.374;2022-07-26T08:39:12;94691.06;;;33.41;36.31
22257;BME280;11297;42.686;23.374;2022-07-26T08:41:38;94685.19;;;33.69;38.13
22257;BME280;11297;42.686;23.374;2022-07-26T08:44:09;94685.28;;;33.83;37.85
22257;BME280;11297;42.686;23.374;2022-07-26T08:46:36;94690.38;;;33.82;35.48
22257;BME280;11297;42.686;23.374;2022-07-26T08:49:03;94689.34;;;33.79;37.58
22257;BME280;11297;42.686;23.374;2022-07-26T08:51:29;94685.72;;;33.82;36.24
22257;BME280;11297;42.686;23.374;2022-07-26T08:53:58;94689.25;;;34.06;38.65
22257;BME280;11297;42.686;23.374;2022-07-26T08:56:24;94681.69;;;34.28;36.30
22257;BME280;11297;42.686;23.374;2022-07-26T08:58:49;94676.22;;;34.36;34.68
22257;BME280;11297;42.686;23.374;2022-07-26T09:01:16;94688.13;;;34.30;34.02
22257;BME280;11297;42.686;23.374;2022-07-26T09:03:43;94680.97;;;34.18;36.34
22257;BME280;11297;42.686;23.374;2022-07-26T09:06:18;94687.41;;;34.21;34.42
22257;BME280;11297;42.686;23.374;2022-07-26T09:08:47;94674.28;;;34.05;35.17
22257;BME280;11297;42.686;23.374;2022-07-26T09:11:31;94678.69;;;33.93;34.58
22257;BME280;11297;42.686;23.374;2022-07-26T09:14:01;94680.44;;;34.05;34.79
22257;BME280;11297;42.686;23.374;2022-07-26T09:16:28;94681.47;;;34.08;35.01
22257;BME280;11297;42.686;23.374;2022-07-26T09:18:54;94677.00;;;34.28;36.17
22257;BME280;11297;42.686;23.374;2022-07-26T09:21:34;94681.22;;;34.61;34.89
22257;BME280;11297;42.686;23.374;2022-07-26T09:24:01;94671.22;;;34.76;34.01
22257;BME280;11297;42.686;23.374;2022-07-26T09:26:26;94668.94;;;34.98;33.52
22257;BME280;11297;42.686;23.374;2022-07-26T09:29:09;94662.06;;;35.11;36.83
22257;BME280;11297;42.686;23.374;2022-07-26T09:31:36;94650.34;;;35.00;31.03
22257;BME280;11297;42.686;23.374;2022-07-26T09:34:03;94659.38;;;35.11;33.11
22257;BME280;11297;42.686;23.374;2022-07-26T09:36:29;94660.50;;;35.05;33.97
22257;BME280;11297;42.686;23.374;2022-07-26T09:38:59;94664.97;;;35.08;33.29
22257;BME280;11297;42.686;23.374;2022-07-26T09:41:34;94661.22;;;35.05;35.72
22257;BME280;11297;42.686;23.374;2022-07-26T09:44:18;94647.91;;;35.02;33.20
22257;BME280;11297;42.686;23.374;2022-07-26T09:46:55;94656.19;;;34.98;31.23
22257;BME280;11297;42.686;23.374;2022-07-26T09:49:22;94655.47;;;35.12;34.42
22257;BME280;11297;42.686;23.374;2022-07-26T09:51:50;94644.94;;;35.29;28.80
22257;BME280;11297;42.686;23.374;2022-07-26T09:54:32;94654.09;;;35.31;33.14
22257;BME280;11297;42.686;23.374;2022-07-26T09:57:00;94639.13;;;35.44;27.44
22257;BME280;11297;42.686;23.374;2022-07-26T09:59:27;94636.31;;;35.39;30.08
22257;BME280;11297;42.686;23.374;2022-07-26T10:01:55;94625.69;;;35.35;27.80
22257;BME280;11297;42.686;23.374;2022-07-26T10:04:22;94629.88;;;35.36;30.56
22257;BME280;11297;42.686;23.374;2022-07-26T10:06:47;94640.06;;;35.41;30.55
22257;BME280;11297;42.686;23.374;2022-07-26T10:09:14;94626.97;;;35.54;27.93
22257;BME280;11297;42.686;23.374;2022-07-26T10:11:54;94636.38;;;35.30;31.99
22257;BME280;11297;42.686;23.374;2022-07-26T10:19:45;94626.28;;;35.02;29.54
22257;BME280;11297;42.686;23.374;2022-07-26T10:24:49;94613.97;;;35.01;33.05
22257;BME280;11297;42.686;23.374;2022-07-26T10:27:41;94615.28;;;34.91;30.09
22257;BME280;11297;42.686;23.374;2022-07-26T10:33:01;94613.13;;;34.95;29.38
22257;BME280;11297;42.686;23.374;2022-07-26T10:40:27;94598.81;;;34.80;30.16
22257;BME280;11297;42.686;23.374;2022-07-26T10:43:17;94601.69;;;35.00;33.15
22257;BME280;11297;42.686;23.374;2022-07-26T10:45:43;94601.78;;;35.20;30.47
22257;BME280;11297;42.686;23.374;2022-07-26T10:48:16;94605.81;;;35.24;28.88
22257;BME280;11297;42.686;23.374;2022-07-26T10:50:48;94585.78;;;34.79;30.33
22257;BME280;11297;42.686;23.374;2022-07-26T10:53:24;94596.44;;;34.96;29.28
22257;BME280;11297;42.686;23.374;2022-07-26T10:55:52;94591.25;;;34.93;30.63
22257;BME280;11297;42.686;23.374;2022-07-26T10:58:20;94584.44;;;34.97;31.25
22257;BME280;11297;42.686;23.374;2022-07-26T11:01:00;94578.56;;;34.99;30.62
22257;BME280;11297;42.686;23.374;2022-07-26T11:03:37;94560.88;;;35.12;32.71
22257;BME280;11297;42.686;23.374;2022-07-26T11:06:16;94573.72;;;35.32;30.53
22257;BME280;11297;42.686;23.374;2022-07-26T11:08:46;94576.88;;;35.16;31.70
22257;BME280;11297;42.686;23.374;2022-07-26T11:11:13;94557.91;;;35.10;31.71
22257;BME280;11297;42.686;23.374;2022-07-26T11:13:50;94562.91;;;35.32;31.17
22257;BME280;11297;42.686;23.374;2022-07-26T11:16:16;94565.34;;;35.44;32.62
22257;BME280;11297;42.686;23.374;2022-07-26T11:18:42;94555.00;;;35.42;30.33
22257;BME280;11297;42.686;23.374;2022-07-26T11:21:13;94546.88;;;35.42;28.66
22257;BME280;11297;42.686;23.374;2022-07-26T11:23:41;94530.41;;;35.12;30.50
22257;BME280;11297;42.686;23.374;2022-07-26T11:26:21;94533.06;;;34.83;30.57
22257;BME280;11297;42.686;23.374;2022-07-26T11:28:58;94530.44;;;34.74;33.03
22257;BME280;11297;42.686;23.374;2022-07-26T11:33:58;94530.63;;;34.71;30.36
22257;BME280;11297;42.686;23.374;2022-07-26T11:36:37;94536.66;;;34.51;33.42
22257;BME280;11297;42.686;23.374;2022-07-26T11:39:06;94526.06;;;34.62;34.91
22257;BME280;11297;42.686;23.374;2022-07-26T11:41:32;94519.19;;;34.76;30.19
22257;BME280;11297;42.686;23.374;2022-07-26T11:43:58;94518.34;;;34.70;32.93
22257;BME280;11297;42.686;23.374;2022-07-26T11:46:33;94526.63;;;34.66;31.90
22257;BME280;11297;42.686;23.374;2022-07-26T11:48:59;94513.13;;;34.66;30.63
22257;BME280;11297;42.686;23.374;2022-07-26T11:51:25;94505.94;;;34.63;28.27
22257;BME280;11297;42.686;23.374;2022-07-26T11:53:52;94518.41;;;34.61;30.73
22257;BME280;11297;42.686;23.374;2022-07-26T11:56:24;94521.34;;;34.72;33.29
22257;BME280;11297;42.686;23.374;2022-07-26T11:58:53;94508.84;;;34.74;29.30
22257;BME280;11297;42.686;23.374;2022-07-26T12:01:20;94513.22;;;34.72;28.56
22257;BME280;11297;42.686;23.374;2022-07-26T12:03:50;94504.84;;;34.70;31.68
22257;BME280;11297;42.686;23.374;2022-07-26T12:06:20;94495.41;;;34.65;34.94
22257;BME280;11297;42.686;23.374;2022-07-26T12:08:47;94504.75;;;34.64;28.34
22257;BME280;11297;42.686;23.374;2022-07-26T12:11:14;94507.34;;;34.59;29.51
22257;BME280;11297;42.686;23.374;2022-07-26T12:14:00;94493.53;;;34.42;30.76
22257;BME280;11297;42.686;23.374;2022-07-26T12:16:43;94499.72;;;34.57;29.10
22257;BME280;11297;42.686;23.374;2022-07-26T12:19:22;94502.53;;;34.39;29.54
22257;BME280;11297;42.686;23.374;2022-07-26T12:21:52;94494.38;;;34.48;29.06
22257;BME280;11297;42.686;23.374;2022-07-26T12:27:18;94492.81;;;34.56;29.52
22257;BME280;11297;42.686;23.374;2022-07-26T12:32:17;94487.13;;;34.54;29.72
22257;BME280;11297;42.686;23.374;2022-07-26T12:34:57;94478.84;;;34.58;30.00
22257;BME280;11297;42.686;23.374;2022-07-26T12:37:23;94472.25;;;34.59;32.11
22257;BME280;11297;42.686;23.374;2022-07-26T12:40:25;94480.06;;;34.71;31.86
22257;BME280;11297;42.686;23.374;2022-07-26T12:45:23;94478.59;;;34.70;29.75
22257;BME280;11297;42.686;23.374;2022-07-26T12:47:50;94481.09;;;34.74;28.54
22257;BME280;11297;42.686;23.374;2022-07-26T12:50:18;94477.91;;;34.46;31.22
22257;BME280;11297;42.686;23.374;2022-07-26T12:52:44;94473.91;;;34.42;29.90
22257;BME280;11297;42.686;23.374;2022-07-26T12:55:13;94473.44;;;34.43;34.30
22257;BME280;11297;42.686;23.374;2022-07-26T12:57:42;94472.53;;;34.46;30.58
22257;BME280;11297;42.686;23.374;2022-07-26T13:00:08;94472.13;;;34.53;31.98
22257;BME280;11297;42.686;23.374;2022-07-26T13:02:36;94473.91;;;34.56;33.05
22257;BME280;11297;42.686;23.374;2022-07-26T13:05:01;94478.13;;;34.72;33.96
22257;BME280;11297;42.686;23.374;2022-07-26T13:07:28;94470.00;;;34.86;33.24
22257;BME280;11297;42.686;23.374;2022-07-26T13:09:54;94459.53;;;34.88;31.26
22257;BME280;11297;42.686;23.374;2022-07-26T13:12:19;94454.09;;;34.74;29.60
22257;BME280;11297;42.686;23.374;2022-07-26T13:14:45;94448.50;;;34.91;30.37
22257;BME280;11297;42.686;23.374;2022-07-26T13:17:10;94456.50;;;34.86;28.60
22257;BME280;11297;42.686;23.374;2022-07-26T13:19:37;94460.22;;;34.74;29.72